createdAt,value
2023-07-21T00:00:33.993Z,6.18
2023-07-21T00:03:00.795Z,6.32
2023-07-21T00:05:27.574Z,5.57
2023-07-21T00:07:55.683Z,5.95
2023-07-21T00:10:22.477Z,6.20
2023-07-21T00:12:49.489Z,5.50
2023-07-21T00:15:20.253Z,6.63
2023-07-21T00:17:48.876Z,5.87
2023-07-21T00:20:23.177Z,6.70
2023-07-21T00:22:51.078Z,7.22
2023-07-21T00:25:18.155Z,8.10
2023-07-21T00:27:45.703Z,5.25
2023-07-21T00:30:13.110Z,5.55
2023-07-21T00:32:41.772Z,7.28
2023-07-21T00:35:10.120Z,5.57
2023-07-21T00:37:38.017Z,6.82
2023-07-21T00:40:11.440Z,5.55
2023-07-21T00:42:38.558Z,7.15
2023-07-21T00:45:06.272Z,6.78
2023-07-21T00:47:35.736Z,6.97
2023-07-21T00:50:02.806Z,6.60
2023-07-21T00:52:29.749Z,6.50
2023-07-21T00:54:56.700Z,6.55
2023-07-21T00:57:23.851Z,8.85
2023-07-21T00:59:51.986Z,8.55
2023-07-21T01:03:21.858Z,5.55
2023-07-21T01:05:52.335Z,5.38
2023-07-21T01:08:21.385Z,7.50
2023-07-21T01:10:49.912Z,7.50
2023-07-21T01:13:18.897Z,6.88
2023-07-21T01:15:54.171Z,9.95
2023-07-21T01:18:22.110Z,5.15
2023-07-21T01:20:49.787Z,9.68
2023-07-21T01:23:40.046Z,8.60
2023-07-21T01:26:08.057Z,7.82
2023-07-21T01:28:35.320Z,7.47
2023-07-21T01:31:03.197Z,5.15
2023-07-21T01:33:30.289Z,8.10
2023-07-21T01:35:57.907Z,10.02
2023-07-21T01:38:25.738Z,8.52
2023-07-21T01:40:53.022Z,9.25
2023-07-21T01:43:21.414Z,7.38
2023-07-21T01:45:50.097Z,8.60
2023-07-21T01:48:16.997Z,7.22
2023-07-21T01:50:44.070Z,7.40
2023-07-21T01:53:19.957Z,6.75
2023-07-21T01:56:04.317Z,6.15
2023-07-21T01:58:34.042Z,6.13
2023-07-21T02:01:02.861Z,8.45
2023-07-21T02:03:30.258Z,11.13
2023-07-21T02:05:57.139Z,9.82
2023-07-21T02:08:23.993Z,6.38
2023-07-21T02:10:50.895Z,8.18
2023-07-21T02:13:41.787Z,8.87
2023-07-21T02:16:08.667Z,5.60
2023-07-21T02:18:37.022Z,8.15
2023-07-21T02:21:05.270Z,9.35
2023-07-21T02:23:32.720Z,18.10
2023-07-21T02:26:00.594Z,10.85
2023-07-21T02:28:27.996Z,6.68
2023-07-21T02:31:03.503Z,8.52
2023-07-21T02:33:31.815Z,9.20
2023-07-21T02:36:00.936Z,6.13
2023-07-21T02:38:28.392Z,8.75
2023-07-21T02:40:55.619Z,7.20
2023-07-21T02:43:24.570Z,7.53
2023-07-21T02:45:52.292Z,6.32
2023-07-21T02:48:19.659Z,8.77
2023-07-21T02:50:51.570Z,12.63
2023-07-21T02:53:21.007Z,7.78
2023-07-21T02:55:54.764Z,8.55
2023-07-21T02:58:22.057Z,9.68
2023-07-21T03:00:49.027Z,9.18
2023-07-21T03:03:30.249Z,7.18
2023-07-21T03:06:04.727Z,9.00
2023-07-21T03:08:31.719Z,8.75
2023-07-21T03:11:05.099Z,9.98
2023-07-21T03:13:35.614Z,7.78
2023-07-21T03:16:03.997Z,6.38
2023-07-21T03:18:32.933Z,9.30
2023-07-21T03:21:15.794Z,8.43
2023-07-21T03:23:42.539Z,10.13
2023-07-21T03:26:09.340Z,11.07
2023-07-21T03:28:41.001Z,7.00
2023-07-21T03:31:10.219Z,9.52
2023-07-21T03:33:43.576Z,10.18
2023-07-21T03:36:24.827Z,13.23
2023-07-21T03:38:51.754Z,10.98
2023-07-21T03:41:18.968Z,10.65
2023-07-21T03:43:46.043Z,10.02
2023-07-21T03:46:14.369Z,9.00
2023-07-21T03:48:59.870Z,10.23
2023-07-21T03:51:27.537Z,11.73
2023-07-21T03:53:59.380Z,9.38
2023-07-21T03:56:27.201Z,7.53
2023-07-21T03:58:54.863Z,9.77
2023-07-21T04:01:21.724Z,10.48
2023-07-21T04:03:50.173Z,8.18
2023-07-21T04:06:19.162Z,11.55
2023-07-21T04:08:45.994Z,10.05
2023-07-21T04:11:12.829Z,12.25
2023-07-21T04:13:39.636Z,7.40
2023-07-21T04:16:06.627Z,10.40
2023-07-21T04:18:33.456Z,10.60
2023-07-21T04:21:02.750Z,6.88
2023-07-21T04:23:29.886Z,16.65
2023-07-21T04:25:58.717Z,9.48
2023-07-21T04:28:25.546Z,11.32
2023-07-21T04:30:55.733Z,12.77
2023-07-21T04:33:22.764Z,15.43
2023-07-21T04:35:50.886Z,15.43
2023-07-21T04:38:23.281Z,15.23
2023-07-21T04:40:55.294Z,15.75
2023-07-21T04:43:22.507Z,14.27
2023-07-21T04:45:50.194Z,10.13
2023-07-21T04:48:30.605Z,15.33
2023-07-21T04:50:58.480Z,13.20
2023-07-21T04:53:25.448Z,13.57
2023-07-21T04:55:57.473Z,15.00
2023-07-21T04:58:25.533Z,8.00
2023-07-21T05:00:53.191Z,11.85
2023-07-21T05:03:20.107Z,11.38
2023-07-21T05:05:48.908Z,10.32
2023-07-21T05:08:16.164Z,13.48
2023-07-21T05:10:42.961Z,13.25
2023-07-21T05:15:50.231Z,15.15
2023-07-21T05:18:26.279Z,14.35
2023-07-21T05:21:08.129Z,9.35
2023-07-21T05:23:48.948Z,10.20
2023-07-21T05:26:19.357Z,11.25
2023-07-21T05:28:47.827Z,9.75
2023-07-21T05:31:15.683Z,9.10
2023-07-21T05:33:54.392Z,6.80
2023-07-21T05:36:22.009Z,7.65
2023-07-21T05:38:49.020Z,6.95
2023-07-21T05:41:17.987Z,7.68
2023-07-21T05:43:45.152Z,7.70
2023-07-21T05:46:13.553Z,5.60
2023-07-21T05:48:50.844Z,8.25
2023-07-21T05:51:18.808Z,10.57
2023-07-21T05:53:48.900Z,6.30
2023-07-21T05:56:20.645Z,9.63
2023-07-21T05:58:57.909Z,6.53
2023-07-21T06:01:25.722Z,10.95
2023-07-21T06:03:52.629Z,9.05
2023-07-21T06:06:19.623Z,8.38
2023-07-21T06:09:02.459Z,11.52
2023-07-21T06:11:45.138Z,5.82
2023-07-21T06:14:32.457Z,9.93
2023-07-21T06:17:31.426Z,10.18
2023-07-21T06:20:00.067Z,14.30
2023-07-21T06:22:27.901Z,11.73
2023-07-21T06:24:54.667Z,10.27
2023-07-21T06:27:21.493Z,5.93
2023-07-21T06:29:48.259Z,8.85
2023-07-21T06:32:21.160Z,10.68
2023-07-21T06:34:58.115Z,13.13
2023-07-21T06:37:52.977Z,11.77
2023-07-21T06:40:35.684Z,8.13
2023-07-21T06:43:30.015Z,7.32
2023-07-21T06:46:20.476Z,7.50
2023-07-21T06:49:01.290Z,15.15
2023-07-21T06:51:43.707Z,11.32
2023-07-21T06:54:10.720Z,11.35
2023-07-21T06:56:37.535Z,10.05
2023-07-21T06:59:04.314Z,9.18
2023-07-21T07:01:31.219Z,10.43
2023-07-21T07:03:59.762Z,13.15
2023-07-21T07:06:29.871Z,8.50
2023-07-21T07:08:57.078Z,15.07
2023-07-21T07:11:24.321Z,10.75
2023-07-21T07:13:51.467Z,8.68
2023-07-21T07:16:18.299Z,7.95
2023-07-21T07:18:45.133Z,14.00
2023-07-21T07:21:15.573Z,8.20
2023-07-21T07:23:42.341Z,7.32
2023-07-21T07:26:09.379Z,8.25
2023-07-21T07:28:36.261Z,10.32
2023-07-21T07:31:07.141Z,8.98
2023-07-21T07:33:34.220Z,11.75
2023-07-21T07:36:01.086Z,11.60
2023-07-21T07:38:29.677Z,12.07
2023-07-21T07:41:04.847Z,13.20
2023-07-21T07:43:33.495Z,13.18
2023-07-21T07:46:00.359Z,9.02
2023-07-21T07:48:27.200Z,4.93
2023-07-21T07:50:54.929Z,5.95
2023-07-21T07:53:22.513Z,5.70
2023-07-21T07:55:49.984Z,13.23
2023-07-21T07:58:16.874Z,7.05
2023-07-21T08:00:44.413Z,5.22
2023-07-21T08:03:11.998Z,7.05
2023-07-21T08:05:40.775Z,9.80
2023-07-21T08:08:13.796Z,10.32
2023-07-21T08:10:43.045Z,3.38
2023-07-21T08:13:10.183Z,4.93
2023-07-21T08:15:37.028Z,4.45
2023-07-21T08:18:04.308Z,5.57
2023-07-21T08:20:31.287Z,7.15
2023-07-21T08:22:58.014Z,11.20
2023-07-21T08:25:27.034Z,5.70
2023-07-21T08:27:54.447Z,6.22
2023-07-21T08:30:24.050Z,5.45
2023-07-21T08:32:50.880Z,4.00
2023-07-21T08:35:17.644Z,6.03
2023-07-21T08:37:44.472Z,7.07
2023-07-21T08:40:12.256Z,4.63
2023-07-21T08:42:39.046Z,5.70
2023-07-21T08:45:06.674Z,5.40
2023-07-21T08:47:34.302Z,6.40
2023-07-21T08:50:02.752Z,3.40
2023-07-21T08:52:29.530Z,5.45
2023-07-21T08:54:56.524Z,4.93
2023-07-21T08:57:24.227Z,4.65
2023-07-21T08:59:51.578Z,7.63
2023-07-21T09:02:18.391Z,6.78
2023-07-21T09:04:45.883Z,6.80
2023-07-21T09:07:12.886Z,5.70
2023-07-21T09:09:39.711Z,7.13
2023-07-21T09:12:10.590Z,4.90
2023-07-21T09:14:43.102Z,7.70
2023-07-21T09:17:12.889Z,8.68
2023-07-21T09:19:42.544Z,7.80
2023-07-21T09:22:12.521Z,5.32
2023-07-21T09:24:50.952Z,6.93
2023-07-21T09:27:20.458Z,8.50
2023-07-21T09:29:47.419Z,9.52
2023-07-21T09:32:22.565Z,5.93
2023-07-21T09:35:00.546Z,4.55
2023-07-21T09:37:29.978Z,8.15
2023-07-21T09:39:59.301Z,7.78
2023-07-21T09:42:28.096Z,7.30
2023-07-21T09:44:56.898Z,7.72
2023-07-21T09:47:24.779Z,8.90
2023-07-21T09:49:56.493Z,5.00
2023-07-21T09:52:24.376Z,8.07
2023-07-21T09:55:12.360Z,5.80
2023-07-21T09:57:50.292Z,4.35
2023-07-21T10:00:19.255Z,4.72
2023-07-21T10:02:49.135Z,5.45
2023-07-21T10:05:16.223Z,3.50
2023-07-21T10:07:47.226Z,5.10
2023-07-21T10:12:54.399Z,6.78
2023-07-21T10:15:31.863Z,4.68
2023-07-21T10:18:12.695Z,4.05
2023-07-21T10:20:47.772Z,4.55
2023-07-21T10:23:23.849Z,5.70
2023-07-21T10:26:04.664Z,4.47
2023-07-21T10:28:31.354Z,3.80
2023-07-21T10:31:22.910Z,3.03
2023-07-21T10:34:05.493Z,3.55
2023-07-21T10:37:00.104Z,4.75
2023-07-21T10:39:33.034Z,8.90
2023-07-21T10:42:05.414Z,10.60
2023-07-21T10:44:39.976Z,6.68
2023-07-21T10:47:16.973Z,7.00
2023-07-21T10:49:44.885Z,10.32
2023-07-21T10:52:12.035Z,3.70
2023-07-21T10:54:39.487Z,4.97
2023-07-21T10:57:06.939Z,9.45
2023-07-21T10:59:35.912Z,6.68
2023-07-21T11:02:08.137Z,3.08
2023-07-21T11:04:35.438Z,5.30
2023-07-21T11:07:02.575Z,6.63
2023-07-21T11:09:35.023Z,9.32
2023-07-21T11:12:02.334Z,5.65
2023-07-21T11:14:29.364Z,5.35
2023-07-21T11:17:02.241Z,3.30
2023-07-21T11:19:34.554Z,4.70
2023-07-21T11:22:02.273Z,3.38
2023-07-21T11:24:31.414Z,3.17
2023-07-21T11:27:10.462Z,4.13
2023-07-21T11:29:44.741Z,2.90
2023-07-21T11:32:26.047Z,4.32
2023-07-21T11:34:58.015Z,4.65
2023-07-21T11:37:25.668Z,4.18
2023-07-21T11:39:57.302Z,2.70
2023-07-21T11:42:24.781Z,3.10
2023-07-21T11:44:51.673Z,5.43
2023-07-21T11:47:19.280Z,3.15
2023-07-21T11:49:47.682Z,4.28
2023-07-21T11:52:26.837Z,4.90
2023-07-21T11:54:56.265Z,5.25
2023-07-21T11:57:23.060Z,5.65
2023-07-21T11:59:49.809Z,3.13
2023-07-21T12:02:24.081Z,4.90
2023-07-21T12:04:51.519Z,4.57
2023-07-21T12:07:18.433Z,3.65
2023-07-21T12:09:46.887Z,4.03
2023-07-21T12:12:13.713Z,4.18
2023-07-21T12:14:40.470Z,3.60
2023-07-21T12:17:07.449Z,3.60
2023-07-21T12:19:35.800Z,2.90
2023-07-21T12:22:02.717Z,5.03
2023-07-21T12:24:30.153Z,2.80
2023-07-21T12:26:57.358Z,4.50
2023-07-21T12:29:37.873Z,3.10
2023-07-21T12:32:11.710Z,3.67
2023-07-21T12:34:38.644Z,2.55
2023-07-21T12:37:05.431Z,3.10
2023-07-21T12:39:32.428Z,3.47
2023-07-21T12:41:59.364Z,2.45
2023-07-21T12:44:26.085Z,2.78
2023-07-21T12:46:52.959Z,2.20
2023-07-21T12:49:20.036Z,3.28
2023-07-21T12:51:46.896Z,2.00
2023-07-21T12:54:13.687Z,2.50
2023-07-21T12:56:40.554Z,1.95
2023-07-21T12:59:07.571Z,3.35
2023-07-21T13:01:34.464Z,5.63
2023-07-21T13:04:01.825Z,4.03
2023-07-21T13:06:29.675Z,5.25
2023-07-21T13:08:58.132Z,7.95
2023-07-21T13:11:24.865Z,13.40
2023-07-21T13:13:52.880Z,10.40
2023-07-21T13:16:19.974Z,9.48
2023-07-21T13:18:48.118Z,9.65
2023-07-21T13:21:15.305Z,9.50
2023-07-21T13:23:43.172Z,9.52
2023-07-21T13:26:10.087Z,10.40
2023-07-21T13:28:36.971Z,9.77
2023-07-21T13:31:03.773Z,3.70
2023-07-21T13:33:30.672Z,6.25
2023-07-21T13:35:57.716Z,4.00
2023-07-21T13:38:25.950Z,3.72
2023-07-21T13:40:52.665Z,3.25
2023-07-21T13:43:19.416Z,2.83
2023-07-21T13:45:47.589Z,4.25
2023-07-21T13:48:14.709Z,5.40
2023-07-21T13:50:41.688Z,3.30
2023-07-21T13:53:08.530Z,5.05
2023-07-21T13:55:35.354Z,4.35
2023-07-21T13:58:02.724Z,5.07
2023-07-21T14:00:30.792Z,3.83
2023-07-21T14:02:57.742Z,5.10
2023-07-21T14:05:25.575Z,3.20
2023-07-21T14:07:52.835Z,5.57
2023-07-21T14:10:19.821Z,7.05
2023-07-21T14:12:47.967Z,3.92
2023-07-21T14:15:15.336Z,8.38
2023-07-21T14:17:42.200Z,4.03
2023-07-21T14:20:11.078Z,5.63
2023-07-21T14:22:38.826Z,3.22
2023-07-21T14:25:06.591Z,2.30
2023-07-21T14:27:33.358Z,3.67
2023-07-21T14:30:00.188Z,2.95
2023-07-21T14:32:27.974Z,3.67
2023-07-21T14:34:54.886Z,3.15
2023-07-21T14:37:21.713Z,2.35
2023-07-21T14:39:48.556Z,3.45
2023-07-21T14:42:15.892Z,2.15
2023-07-21T14:44:42.900Z,2.30
2023-07-21T14:47:10.123Z,2.45
2023-07-21T14:49:37.177Z,2.25
2023-07-21T14:52:04.353Z,2.47
2023-07-21T14:54:31.104Z,1.90
2023-07-21T14:56:57.944Z,2.92
2023-07-21T14:59:24.823Z,2.63
2023-07-21T15:01:51.643Z,2.15
2023-07-21T15:04:22.264Z,2.72
2023-07-21T15:06:49.241Z,2.83
2023-07-21T15:09:16.270Z,3.60
2023-07-21T15:11:43.062Z,3.13
2023-07-21T15:14:09.856Z,2.83
2023-07-21T15:16:37.308Z,3.65
2023-07-21T15:19:04.271Z,2.30
2023-07-21T15:21:31.211Z,2.55
2023-07-21T15:23:57.996Z,2.30
2023-07-21T15:26:26.440Z,2.38
2023-07-21T15:28:53.450Z,2.08
2023-07-21T15:31:20.421Z,3.40
2023-07-21T15:33:48.499Z,4.10
2023-07-21T15:36:17.878Z,3.70
2023-07-21T15:38:45.083Z,3.70
2023-07-21T15:41:11.832Z,3.72
2023-07-21T15:43:38.766Z,5.10
2023-07-21T15:46:05.737Z,4.82
2023-07-21T15:48:32.978Z,3.97
2023-07-21T15:51:00.093Z,4.90
2023-07-21T15:53:26.805Z,7.10
2023-07-21T15:55:53.719Z,9.15
2023-07-21T15:58:20.604Z,4.75
2023-07-21T16:00:55.625Z,6.10
2023-07-21T16:03:22.333Z,9.60
2023-07-21T16:05:49.096Z,6.47
2023-07-21T16:08:15.904Z,5.97
2023-07-21T16:10:47.437Z,5.35
2023-07-21T16:13:18.648Z,7.10
2023-07-21T16:15:46.245Z,5.80
2023-07-21T16:18:15.003Z,4.70
2023-07-21T16:20:43.669Z,6.10
2023-07-21T16:23:11.467Z,5.13
2023-07-21T16:25:38.336Z,6.82
2023-07-21T16:28:05.227Z,6.07
2023-07-21T16:30:31.997Z,7.32
2023-07-21T16:32:58.815Z,5.55
2023-07-21T16:35:26.149Z,4.60
2023-07-21T16:37:55.058Z,6.50
2023-07-21T16:40:23.122Z,5.50
2023-07-21T16:42:50.019Z,8.65
2023-07-21T16:45:16.957Z,5.20
2023-07-21T16:47:43.913Z,6.63
2023-07-21T16:50:12.727Z,5.55
2023-07-21T16:52:40.253Z,5.40
2023-07-21T16:55:07.694Z,5.60
2023-07-21T16:57:34.468Z,5.60
2023-07-21T17:00:10.364Z,5.90
2023-07-21T17:02:37.705Z,5.57
2023-07-21T17:05:13.406Z,6.03
2023-07-21T17:07:51.671Z,5.07
2023-07-21T17:10:18.705Z,4.97
2023-07-21T17:12:45.704Z,4.38
2023-07-21T17:15:13.487Z,5.38
2023-07-21T17:17:40.373Z,4.70
2023-07-21T17:20:13.122Z,5.65
2023-07-21T17:22:48.498Z,4.85
2023-07-21T17:25:17.042Z,4.20
2023-07-21T17:27:44.042Z,5.60
2023-07-21T17:30:11.823Z,6.40
2023-07-21T17:32:40.111Z,6.90
2023-07-21T17:35:07.798Z,4.70
2023-07-21T17:37:35.295Z,5.15
2023-07-21T17:40:02.320Z,5.32
2023-07-21T17:42:29.562Z,3.40
2023-07-21T17:44:56.436Z,3.75
2023-07-21T17:47:23.319Z,5.93
2023-07-21T17:49:50.171Z,6.30
2023-07-21T17:52:16.928Z,5.82
2023-07-21T17:54:43.676Z,7.35
2023-07-21T17:57:11.406Z,7.55
2023-07-21T17:59:39.198Z,4.65
2023-07-21T18:02:06.820Z,12.02
2023-07-21T18:04:34.635Z,5.95
2023-07-21T18:07:01.363Z,7.25
2023-07-21T18:09:28.136Z,5.32
2023-07-21T18:11:55.827Z,5.13
2023-07-21T18:14:23.237Z,6.10
2023-07-21T18:16:49.982Z,6.28
2023-07-21T18:19:16.777Z,5.18
2023-07-21T18:21:43.669Z,7.18
2023-07-21T18:24:10.434Z,6.82
2023-07-21T18:26:37.258Z,5.55
2023-07-21T18:29:04.065Z,7.10
2023-07-21T18:31:31.068Z,6.22
2023-07-21T18:33:57.954Z,7.93
2023-07-21T18:36:24.656Z,4.68
2023-07-21T18:38:51.554Z,5.55
2023-07-21T18:41:19.601Z,5.70
2023-07-21T18:43:46.552Z,6.80
2023-07-21T18:46:13.383Z,6.55
2023-07-21T18:48:40.301Z,6.13
2023-07-21T18:51:07.201Z,6.95
2023-07-21T18:53:34.015Z,6.90
2023-07-21T18:56:00.744Z,6.18
2023-07-21T18:58:27.475Z,4.93
2023-07-21T19:00:54.223Z,5.28
2023-07-21T19:03:21.355Z,5.88
2023-07-21T19:05:48.373Z,6.50
2023-07-21T19:08:15.099Z,6.57
2023-07-21T19:10:41.797Z,5.82
2023-07-21T19:13:08.640Z,5.00
2023-07-21T19:15:38.165Z,5.13
2023-07-21T19:18:05.018Z,5.63
2023-07-21T19:20:31.782Z,8.75
2023-07-21T19:22:58.991Z,6.45
2023-07-21T19:25:25.834Z,5.28
2023-07-21T19:27:53.741Z,6.53
2023-07-21T19:30:20.687Z,5.03
2023-07-21T19:32:47.560Z,6.07
2023-07-21T19:35:14.375Z,5.65
2023-07-21T19:37:42.418Z,5.03
2023-07-21T19:40:10.330Z,6.55
2023-07-21T19:42:37.413Z,5.35
2023-07-21T19:45:05.202Z,5.68
2023-07-21T19:47:32.194Z,4.10
2023-07-21T19:49:59.027Z,4.45
2023-07-21T19:52:26.182Z,6.45
2023-07-21T19:54:52.893Z,5.30
2023-07-21T19:57:22.133Z,4.88
2023-07-21T19:59:49.099Z,6.53
2023-07-21T20:02:15.984Z,5.15
2023-07-21T20:04:42.885Z,5.18
2023-07-21T20:07:09.721Z,6.63
2023-07-21T20:09:36.482Z,8.25
2023-07-21T20:12:03.314Z,4.75
2023-07-21T20:14:30.094Z,5.82
2023-07-21T20:16:56.891Z,4.97
2023-07-21T20:19:23.815Z,6.38
2023-07-21T20:21:50.730Z,6.95
2023-07-21T20:24:17.569Z,5.57
2023-07-21T20:26:44.490Z,5.25
2023-07-21T20:29:11.329Z,4.07
2023-07-21T20:31:38.161Z,8.13
2023-07-21T20:34:06.342Z,5.75
2023-07-21T20:36:33.106Z,5.47
2023-07-21T20:38:59.905Z,6.78
2023-07-21T20:41:26.717Z,5.32
2023-07-21T20:43:53.412Z,7.18
2023-07-21T20:46:20.229Z,5.22
2023-07-21T20:48:47.076Z,5.95
2023-07-21T20:51:16.903Z,6.65
2023-07-21T20:53:43.627Z,5.63
2023-07-21T20:56:12.427Z,5.65
2023-07-21T20:58:39.215Z,5.50
2023-07-21T21:01:05.980Z,5.30
2023-07-21T21:03:32.802Z,5.68
2023-07-21T21:06:00.958Z,5.25
2023-07-21T21:08:28.221Z,5.78
2023-07-21T21:10:55.126Z,4.38
2023-07-21T21:13:23.295Z,7.07
2023-07-21T21:15:52.551Z,8.00
2023-07-21T21:18:19.460Z,8.45
2023-07-21T21:20:46.317Z,5.22
2023-07-21T21:23:13.918Z,7.78
2023-07-21T21:25:40.816Z,5.00
2023-07-21T21:28:08.777Z,6.47
2023-07-21T21:30:35.847Z,5.47
2023-07-21T21:33:02.966Z,7.35
2023-07-21T21:35:29.841Z,5.78
2023-07-21T21:37:56.728Z,6.60
2023-07-21T21:40:25.269Z,6.25
2023-07-21T21:42:52.396Z,6.30
2023-07-21T21:45:19.158Z,6.97
2023-07-21T21:47:45.907Z,5.70
2023-07-21T21:50:12.693Z,4.95
2023-07-21T21:52:39.872Z,7.05
2023-07-21T21:55:07.823Z,5.85
2023-07-21T21:57:34.717Z,7.35
2023-07-21T22:00:01.507Z,5.38
2023-07-21T22:02:28.391Z,5.53
2023-07-21T22:04:55.204Z,7.95
2023-07-21T22:07:22.024Z,6.65
2023-07-21T22:09:48.780Z,5.85
2023-07-21T22:12:15.525Z,6.50
2023-07-21T22:14:55.516Z,6.65
2023-07-21T22:17:24.073Z,5.93
2023-07-21T22:20:08.642Z,6.65
2023-07-21T22:22:38.255Z,6.97
2023-07-21T22:25:06.212Z,5.75
2023-07-21T22:27:33.941Z,7.70
2023-07-21T22:30:00.847Z,5.60
2023-07-21T22:32:27.820Z,6.32
2023-07-21T22:34:54.671Z,6.55
2023-07-21T22:37:21.432Z,9.40
2023-07-21T22:39:48.180Z,6.95
2023-07-21T22:42:14.924Z,5.28
2023-07-21T22:44:41.707Z,7.28
2023-07-21T22:47:09.352Z,8.30
2023-07-21T22:49:37.051Z,6.90
2023-07-21T22:52:04.884Z,8.13
2023-07-21T22:54:31.703Z,6.90
2023-07-21T22:56:58.506Z,6.38
2023-07-21T22:59:25.299Z,4.75
2023-07-21T23:01:52.787Z,5.82
2023-07-21T23:04:19.554Z,8.68
2023-07-21T23:06:47.644Z,7.63
2023-07-21T23:09:14.431Z,9.05
2023-07-21T23:11:41.262Z,7.60
2023-07-21T23:14:08.077Z,7.20
2023-07-21T23:16:34.904Z,7.03
2023-07-21T23:19:01.744Z,8.52
2023-07-21T23:21:28.523Z,7.82
2023-07-21T23:23:55.334Z,7.88
2023-07-21T23:26:22.876Z,7.80
2023-07-21T23:28:50.204Z,8.50
2023-07-21T23:31:16.984Z,7.22
2023-07-21T23:33:43.820Z,7.68
2023-07-21T23:36:10.610Z,8.20
2023-07-21T23:38:37.417Z,8.18
2023-07-21T23:41:04.559Z,6.75
2023-07-21T23:43:31.343Z,10.73
2023-07-21T23:46:00.151Z,8.75
2023-07-21T23:48:27.779Z,7.43
2023-07-21T23:50:54.630Z,7.53
2023-07-21T23:53:21.496Z,10.13
2023-07-21T23:55:48.375Z,10.02
2023-07-21T23:58:15.170Z,7.75
